METAR Data
IDs: Format: Raw Decoded Include TAF

Data at: 0649 UTC 28 Sep 2022

KSAT 280551Z 31004KT 10SM CLR 19/06 A3017 RMK AO2 SLP198 T01940061 10300 20189 403220161 51008